Tanacross, Alaska
Current Conditions -  °F | °C
As of 11:53 PM on Wednesday 22 Oct 2014 (Local Time) from PAOR Reporting Station
Light Snow Light Snow  
Wind Chill: 18°   Ceiling: 2700
Heat Index: 26°   Visibility: 7mi
Dew Point: 24°   Wind: 8mph
Humidity: 92%   Direction: 310°NW
Pressure: 29.56"   Gusts: NA
Location:  63.38°N, 143.36°W
Report Text: PAOR 230753Z 31007KT 7SM -SN SCT008 BKN027 OVC034 M03/M04 A2956 RMK AO2 SLP039 T10331044
Loading
Personal Weather Stations






























Interactive Weather Map
Tropical Storm Tracking
New forecast layout! Learn more

10-Day Weather Forecast

Advertisements
Track Severe Weather on mobile